createdAt,value
2022-09-02T00:06:58.571Z,6.28
2022-09-02T00:09:28.615Z,5.25
2022-09-02T00:17:03.657Z,6.88
2022-09-02T00:22:04.584Z,6.70
2022-09-02T00:24:34.439Z,7.20
2022-09-02T00:27:04.025Z,7.00
2022-09-02T00:29:35.253Z,6.95
2022-09-02T00:32:05.902Z,6.30
2022-09-02T00:34:35.505Z,7.38
2022-09-02T00:39:35.034Z,6.40
2022-09-02T00:42:06.864Z,6.00
2022-09-02T00:44:37.862Z,7.18
2022-09-02T00:47:07.493Z,6.30
2022-09-02T00:49:40.996Z,6.80
2022-09-02T00:54:53.978Z,6.35
2022-09-02T00:57:30.409Z,6.05
2022-09-02T01:00:11.501Z,6.90
2022-09-02T01:02:43.209Z,6.57
2022-09-02T01:05:18.028Z,6.88
2022-09-02T01:07:48.004Z,6.78
2022-09-02T01:10:22.432Z,6.78
2022-09-02T01:12:57.951Z,6.55
2022-09-02T01:15:30.251Z,6.32
2022-09-02T01:18:00.373Z,5.97
2022-09-02T01:20:30.396Z,5.75
2022-09-02T01:23:02.464Z,5.70
2022-09-02T01:25:36.156Z,5.75
2022-09-02T01:28:10.659Z,7.38
2022-09-02T01:30:46.961Z,6.57
2022-09-02T01:33:17.915Z,6.00
2022-09-02T01:35:48.682Z,6.00
2022-09-02T01:38:20.693Z,6.38
2022-09-02T01:40:52.623Z,6.43
2022-09-02T01:43:27.299Z,5.90
2022-09-02T01:45:59.517Z,6.53
2022-09-02T01:48:31.909Z,6.18
2022-09-02T01:51:05.840Z,6.38
2022-09-02T01:53:36.916Z,6.93
2022-09-02T01:58:38.081Z,6.18
2022-09-02T02:01:09.141Z,6.13
2022-09-02T02:03:41.536Z,5.43
2022-09-02T02:06:14.832Z,6.28
2022-09-02T02:08:46.443Z,5.80
2022-09-02T02:11:22.043Z,5.75
2022-09-02T02:13:55.059Z,6.40
2022-09-02T02:16:25.030Z,6.88
2022-09-02T02:18:54.654Z,6.50
2022-09-02T02:21:24.142Z,6.10
2022-09-02T02:23:55.740Z,6.22
2022-09-02T02:26:25.282Z,6.50
2022-09-02T02:28:55.086Z,5.82
2022-09-02T02:31:25.137Z,6.53
2022-09-02T02:33:55.050Z,5.93
2022-09-02T02:36:24.931Z,5.47
2022-09-02T02:38:56.405Z,5.45
2022-09-02T02:41:26.771Z,5.18
2022-09-02T02:43:57.081Z,5.80
2022-09-02T02:46:27.040Z,6.13
2022-09-02T02:48:56.613Z,5.95
2022-09-02T02:51:26.297Z,6.03
2022-09-02T02:53:59.013Z,5.80
2022-09-02T02:56:30.427Z,6.57
2022-09-02T02:59:03.425Z,6.28
2022-09-02T03:01:35.236Z,6.20
2022-09-02T03:04:06.976Z,5.75
2022-09-02T03:06:36.780Z,6.30
2022-09-02T03:09:07.874Z,6.30
2022-09-02T03:11:39.619Z,6.60
2022-09-02T03:14:10.221Z,5.75
2022-09-02T03:16:41.143Z,5.85
2022-09-02T03:19:13.993Z,6.78
2022-09-02T03:24:15.905Z,6.35
2022-09-02T03:26:45.574Z,5.60
2022-09-02T03:29:15.581Z,7.10
2022-09-02T03:31:46.497Z,6.60
2022-09-02T03:34:16.472Z,6.40
2022-09-02T03:36:46.004Z,6.35
2022-09-02T03:39:18.022Z,5.85
2022-09-02T03:41:50.261Z,6.30
2022-09-02T03:44:19.993Z,5.90
2022-09-02T03:46:49.572Z,7.10
2022-09-02T03:49:19.263Z,6.85
2022-09-02T03:51:49.087Z,6.72
2022-09-02T03:54:20.389Z,6.45
2022-09-02T03:56:50.152Z,6.20
2022-09-02T03:59:21.179Z,5.65
2022-09-02T04:01:51.784Z,5.93
2022-09-02T04:04:23.076Z,5.60
2022-09-02T04:06:54.570Z,5.80
2022-09-02T04:09:25.981Z,6.63
2022-09-02T04:11:55.822Z,6.63
2022-09-02T04:14:26.688Z,6.53
2022-09-02T04:16:57.201Z,5.78
2022-09-02T04:19:26.981Z,6.28
2022-09-02T04:21:56.577Z,6.00
2022-09-02T04:24:28.310Z,5.78
2022-09-02T04:27:03.336Z,7.03
2022-09-02T04:29:35.874Z,7.30
2022-09-02T04:32:06.101Z,5.75
2022-09-02T04:34:35.736Z,6.22
2022-09-02T04:37:06.006Z,7.43
2022-09-02T04:39:37.018Z,5.88
2022-09-02T04:42:07.288Z,6.13
2022-09-02T04:44:38.325Z,5.75
2022-09-02T04:47:08.651Z,5.93
2022-09-02T04:49:38.377Z,6.82
2022-09-02T04:52:08.849Z,6.55
2022-09-02T04:54:42.412Z,6.38
2022-09-02T04:57:11.936Z,7.35
2022-09-02T04:59:42.486Z,7.13
2022-09-02T05:02:15.062Z,8.32
2022-09-02T05:04:44.687Z,7.20
2022-09-02T05:07:23.262Z,6.35
2022-09-02T05:09:58.617Z,7.70
2022-09-02T05:12:28.979Z,8.38
2022-09-02T05:15:02.214Z,10.32
2022-09-02T05:17:35.605Z,10.17
2022-09-02T05:20:10.011Z,7.95
2022-09-02T05:22:41.212Z,8.77
2022-09-02T05:25:13.110Z,8.65
2022-09-02T05:27:42.684Z,8.00
2022-09-02T05:30:14.377Z,10.93
2022-09-02T05:32:43.900Z,9.00
2022-09-02T05:35:13.536Z,9.77
2022-09-02T05:37:43.262Z,8.68
2022-09-02T05:40:14.889Z,8.95
2022-09-02T05:42:45.573Z,9.40
2022-09-02T05:45:19.396Z,9.45
2022-09-02T05:47:50.672Z,8.80
2022-09-02T05:50:20.670Z,10.05
2022-09-02T05:52:53.013Z,9.90
2022-09-02T05:57:55.325Z,8.93
2022-09-02T06:00:26.086Z,8.32
2022-09-02T06:03:01.938Z,9.43
2022-09-02T06:05:38.353Z,8.48
2022-09-02T06:08:15.774Z,8.18
2022-09-02T06:10:46.769Z,8.57
2022-09-02T06:13:22.836Z,9.00
2022-09-02T06:15:55.643Z,7.63
2022-09-02T06:18:28.536Z,9.02
2022-09-02T06:21:01.705Z,8.20
2022-09-02T06:23:39.088Z,8.55
2022-09-02T06:26:14.513Z,8.27
2022-09-02T06:28:44.472Z,8.40
2022-09-02T06:31:17.455Z,8.70
2022-09-02T06:33:49.505Z,8.15
2022-09-02T06:36:22.353Z,7.85
2022-09-02T06:39:00.989Z,9.70
2022-09-02T06:41:35.995Z,8.00
2022-09-02T06:44:12.586Z,8.93
2022-09-02T06:46:55.312Z,8.82
2022-09-02T06:49:28.031Z,9.05
2022-09-02T06:54:34.054Z,8.00
2022-09-02T06:57:14.532Z,7.05
2022-09-02T06:59:44.740Z,7.07
2022-09-02T07:05:02.903Z,7.07
2022-09-02T07:07:32.635Z,6.72
2022-09-02T07:10:15.060Z,6.75
2022-09-02T07:12:49.955Z,6.85
2022-09-02T07:15:20.700Z,6.43
2022-09-02T07:17:50.658Z,7.30
2022-09-02T07:20:28.853Z,6.47
2022-09-02T07:23:04.811Z,6.35
2022-09-02T07:25:36.609Z,6.65
2022-09-02T07:28:07.777Z,5.45
2022-09-02T07:30:42.238Z,6.07
2022-09-02T07:33:17.694Z,5.22
2022-09-02T07:35:54.014Z,5.10
2022-09-02T07:38:24.977Z,4.22
2022-09-02T07:40:57.011Z,4.30
2022-09-02T07:43:32.032Z,4.80
2022-09-02T07:46:03.660Z,4.20
2022-09-02T07:48:36.862Z,4.47
2022-09-02T07:51:08.158Z,4.55
2022-09-02T07:53:41.018Z,4.55
2022-09-02T07:56:11.005Z,4.35
2022-09-02T07:58:42.907Z,4.82
2022-09-02T08:01:29.303Z,4.60
2022-09-02T08:04:01.551Z,4.78
2022-09-02T08:07:09.159Z,3.33
2022-09-02T08:09:40.154Z,4.40
2022-09-02T08:12:09.953Z,3.65
2022-09-02T08:14:41.033Z,3.75
2022-09-02T08:17:11.048Z,3.80
2022-09-02T08:20:48.390Z,3.25
2022-09-02T08:23:35.568Z,3.20
2022-09-02T08:26:08.251Z,3.08
2022-09-02T08:28:39.441Z,2.92
2022-09-02T08:31:10.826Z,3.28
2022-09-02T08:33:40.488Z,3.15
2022-09-02T08:36:14.552Z,2.95
2022-09-02T08:38:44.596Z,2.67
2022-09-02T08:41:22.205Z,2.22
2022-09-02T08:43:56.351Z,2.47
2022-09-02T08:46:30.116Z,2.50
2022-09-02T08:49:03.988Z,2.75
2022-09-02T08:51:53.156Z,2.40
2022-09-02T08:54:33.916Z,2.10
2022-09-02T08:57:03.764Z,2.15
2022-09-02T08:59:33.618Z,2.13
2022-09-02T09:02:20.496Z,2.50
2022-09-02T09:05:18.264Z,2.00
2022-09-02T09:08:04.839Z,1.85
2022-09-02T09:10:47.282Z,2.17
2022-09-02T09:13:52.069Z,1.63
2022-09-02T09:16:41.570Z,2.13
2022-09-02T09:19:16.959Z,1.60
2022-09-02T09:21:46.728Z,1.60
2022-09-02T09:24:28.302Z,1.80
2022-09-02T09:26:59.576Z,1.63
2022-09-02T09:29:33.395Z,1.40
2022-09-02T09:32:04.140Z,1.58
2022-09-02T09:35:03.242Z,1.50
2022-09-02T09:37:37.750Z,1.50
2022-09-02T09:40:28.827Z,1.20
2022-09-02T09:43:22.747Z,1.40
2022-09-02T09:45:54.319Z,1.60
2022-09-02T09:48:30.812Z,1.35
2022-09-02T09:51:18.809Z,1.50
2022-09-02T09:53:48.857Z,1.42
2022-09-02T09:56:37.544Z,1.30
2022-09-02T09:59:41.318Z,1.30
2022-09-02T10:02:24.353Z,1.67
2022-09-02T10:04:55.642Z,1.30
2022-09-02T10:07:45.024Z,1.70
2022-09-02T10:10:22.537Z,1.50
2022-09-02T10:12:56.902Z,1.50
2022-09-02T10:26:39.814Z,1.42
2022-09-02T10:32:32.817Z,1.70
2022-09-02T10:35:12.924Z,1.05
2022-09-02T10:45:47.848Z,1.30
2022-09-02T10:54:11.349Z,1.23
2022-09-02T16:23:04.878Z,1.10
